Time,TemperatureF,DewpointF,PressureIn,WindDirection,WindDirectionDegrees,WindSpeedMPH,WindSpeedGustMPH,Humidity,HourlyPrecipIn,Conditions,Clouds,dailyrainin,SoftwareType,DateUTC
2013-06-01 00:10:00,69.8,64.0,29.94,NNW,329,0.0,0.0,83,0.00,,,0.00,weatherlink.com 1.10,2013-06-01 04:10:00,
2013-06-01 00:26:00,69.2,64.0,29.93,NNW,329,0.0,0.0,83,0.00,,,0.00,weatherlink.com 1.10,2013-06-01 04:26:00,
2013-06-01 00:41:00,68.9,64.0,29.93,NNW,329,0.0,0.0,84,0.00,,,0.00,weatherlink.com 1.10,2013-06-01 04:41:00,
2013-06-01 00:56:00,68.7,64.0,29.93,NNW,329,0.0,0.0,84,0.00,,,0.00,weatherlink.com 1.10,2013-06-01 04:56:00,
2013-06-01 01:11:00,68.5,64.0,29.93,NNW,329,0.0,0.0,85,0.00,,,0.00,weatherlink.com 1.10,2013-06-01 05:11:00,
2013-06-01 01:26:00,68.2,64.0,29.92,NNW,329,0.0,0.0,85,0.00,,,0.00,weatherlink.com 1.10,2013-06-01 05:26:00,
2013-06-01 01:41:00,67.7,63.0,29.92,NNW,329,0.0,0.0,85,0.00,,,0.00,weatherlink.com 1.10,2013-06-01 05:41:00,
2013-06-01 01:55:00,67.5,63.0,29.92,NNW,329,0.0,0.0,86,0.00,,,0.00,weatherlink.com 1.10,2013-06-01 05:55:00,
2013-06-01 02:10:00,67.3,63.0,29.92,NNW,329,0.0,0.0,87,0.00,,,0.00,weatherlink.com 1.10,2013-06-01 06:10:00,
2013-06-01 02:25:00,67.0,63.0,29.92,NNW,329,0.0,0.0,88,0.00,,,0.00,weatherlink.com 1.10,2013-06-01 06:25:00,
2013-06-01 02:40:00,66.8,64.0,29.92,NNW,329,0.0,0.0,89,0.00,,,0.00,weatherlink.com 1.10,2013-06-01 06:40:00,
2013-06-01 02:55:00,66.7,63.0,29.92,NNW,329,0.0,0.0,89,0.00,,,0.00,weatherlink.com 1.10,2013-06-01 06:55:00,
2013-06-01 03:10:00,66.4,64.0,29.92,NNW,329,0.0,0.0,90,0.00,,,0.00,weatherlink.com 1.10,2013-06-01 07:10:00,
2013-06-01 03:25:00,66.4,63.0,29.92,NNW,329,0.0,0.0,89,0.00,,,0.00,weatherlink.com 1.10,2013-06-01 07:25:00,
2013-06-01 03:40:00,66.6,63.0,29.92,NNW,329,0.0,0.0,89,0.00,,,0.00,weatherlink.com 1.10,2013-06-01 07:40:00,
2013-06-01 03:55:00,66.7,63.0,29.92,NW,319,0.0,1.0,88,0.00,,,0.00,weatherlink.com 1.10,2013-06-01 07:55:00,
2013-06-01 04:11:00,66.7,63.0,29.92,NW,319,0.0,0.0,88,0.00,,,0.00,weatherlink.com 1.10,2013-06-01 08:11:00,
2013-06-01 04:26:00,66.6,63.0,29.92,NW,319,0.0,0.0,88,0.00,,,0.00,weatherlink.com 1.10,2013-06-01 08:26:00,
2013-06-01 04:41:00,66.4,63.0,29.93,NW,319,0.0,1.0,88,0.00,,,0.00,weatherlink.com 1.10,2013-06-01 08:41:00,
2013-06-01 04:56:00,66.1,63.0,29.93,NW,319,0.0,1.0,89,0.00,,,0.00,weatherlink.com 1.10,2013-06-01 08:56:00,
2013-06-01 05:11:00,65.8,63.0,29.93,NW,319,0.0,0.0,89,0.00,,,0.00,weatherlink.com 1.10,2013-06-01 09:11:00,
2013-06-01 05:26:00,65.5,63.0,29.93,NW,319,0.0,0.0,91,0.00,,,0.00,weatherlink.com 1.10,2013-06-01 09:26:00,
2013-06-01 05:41:00,65.2,63.0,29.94,NW,319,0.0,0.0,91,0.00,,,0.00,weatherlink.com 1.10,2013-06-01 09:41:00,
2013-06-01 05:56:00,64.9,63.0,29.94,NW,317,0.0,1.0,92,0.01,,,0.01,weatherlink.com 1.10,2013-06-01 09:56:00,
2013-06-01 06:11:00,64.7,63.0,29.94,NW,313,0.0,0.0,93,0.02,,,0.02,weatherlink.com 1.10,2013-06-01 10:11:00,
2013-06-01 06:26:00,64.9,63.0,29.94,NW,313,0.0,0.0,93,0.02,,,0.02,weatherlink.com 1.10,2013-06-01 10:26:00,
2013-06-01 06:41:00,66.1,64.0,29.94,NW,313,0.0,0.0,92,0.02,,,0.02,weatherlink.com 1.10,2013-06-01 10:41:00,
2013-06-01 06:56:00,68.1,65.0,29.94,NW,313,0.0,0.0,90,0.01,,,0.02,weatherlink.com 1.10,2013-06-01 10:56:00,
2013-06-01 07:11:00,69.8,65.0,29.94,NW,319,0.0,1.0,85,0.01,,,0.03,weatherlink.com 1.10,2013-06-01 11:11:00,
2013-06-01 07:26:00,71.3,66.0,29.94,NW,319,0.0,1.0,82,0.01,,,0.03,weatherlink.com 1.10,2013-06-01 11:26:00,
2013-06-01 07:41:00,73.1,67.0,29.95,North,350,0.0,1.0,80,0.01,,,0.03,weatherlink.com 1.10,2013-06-01 11:41:00,
2013-06-01 07:56:00,74.6,67.0,29.95,SW,225,1.0,2.0,78,0.01,,,0.03,weatherlink.com 1.10,2013-06-01 11:56:00,
2013-06-01 08:11:00,76.2,67.0,29.95,NNE,21,1.0,2.0,74,0.00,,,0.03,weatherlink.com 1.10,2013-06-01 12:11:00,
2013-06-01 08:26:00,77.8,68.0,29.95,West,264,0.0,5.0,71,0.00,,,0.03,weatherlink.com 1.10,2013-06-01 12:26:00,
2013-06-01 08:41:00,79.0,67.0,29.95,WNW,302,3.0,5.0,67,0.00,,,0.03,weatherlink.com 1.10,2013-06-01 12:41:00,
2013-06-01 08:56:00,79.6,68.0,29.94,South,171,0.0,2.0,67,0.00,,,0.03,weatherlink.com 1.10,2013-06-01 12:56:00,
2013-06-01 09:11:00,80.8,68.0,29.94,East,92,0.0,2.0,65,0.00,,,0.03,weatherlink.com 1.10,2013-06-01 13:11:00,
2013-06-01 09:26:00,81.9,69.0,29.94,West,276,0.0,4.0,64,0.00,,,0.03,weatherlink.com 1.10,2013-06-01 13:26:00,
2013-06-01 09:41:00,82.7,68.0,29.94,East,80,0.0,1.0,61,0.00,,,0.03,weatherlink.com 1.10,2013-06-01 13:41:00,
2013-06-01 09:56:00,82.5,67.0,29.93,East,84,1.0,5.0,60,0.00,,,0.03,weatherlink.com 1.10,2013-06-01 13:56:00,
2013-06-01 10:11:00,83.6,69.0,29.93,West,271,0.0,3.0,61,0.00,,,0.03,weatherlink.com 1.10,2013-06-01 14:11:00,
2013-06-01 10:26:00,85.1,68.0,29.93,NNW,345,0.0,4.0,56,0.00,,,0.03,weatherlink.com 1.10,2013-06-01 14:26:00,
2013-06-01 10:42:00,86.2,68.0,29.93,ESE,103,1.0,3.0,55,0.00,,,0.03,weatherlink.com 1.10,2013-06-01 14:42:00,
2013-06-01 10:57:00,87.2,69.0,29.93,ESE,121,0.0,5.0,55,0.00,,,0.03,weatherlink.com 1.10,2013-06-01 14:57:00,
2013-06-01 11:12:00,87.9,68.0,29.93,NW,304,0.0,5.0,51,0.00,,,0.03,weatherlink.com 1.10,2013-06-01 15:12:00,
2013-06-01 11:27:00,87.5,67.0,29.92,East,84,0.0,3.0,51,0.00,,,0.03,weatherlink.com 1.10,2013-06-01 15:27:00,
2013-06-01 11:42:00,88.2,69.0,29.91,WSW,255,0.0,3.0,54,0.00,,,0.03,weatherlink.com 1.10,2013-06-01 15:42:00,
2013-06-01 11:57:00,88.5,68.0,29.91,NW,311,0.0,4.0,51,0.00,,,0.03,weatherlink.com 1.10,2013-06-01 15:57:00,
2013-06-01 12:12:00,88.8,68.0,29.91,NNW,347,0.0,4.0,51,0.00,,,0.03,weatherlink.com 1.10,2013-06-01 16:12:00,
2013-06-01 12:27:00,89.7,68.0,29.90,NE,53,2.0,4.0,49,0.00,,,0.03,weatherlink.com 1.10,2013-06-01 16:27:00,
2013-06-01 12:42:00,89.4,68.0,29.90,SE,145,0.0,4.0,49,0.00,,,0.03,weatherlink.com 1.10,2013-06-01 16:42:00,
2013-06-01 12:57:00,89.7,67.0,29.90,East,101,1.0,5.0,48,0.00,,,0.03,weatherlink.com 1.10,2013-06-01 16:57:00,
2013-06-01 13:12:00,89.5,68.0,29.89,ENE,76,2.0,6.0,49,0.00,,,0.03,weatherlink.com 1.10,2013-06-01 17:12:00,
2013-06-01 13:27:00,90.1,68.0,29.89,South,178,1.0,5.0,48,0.00,,,0.03,weatherlink.com 1.10,2013-06-01 17:27:00,
2013-06-01 13:42:00,90.4,67.0,29.89,East,79,3.0,5.0,46,0.00,,,0.03,weatherlink.com 1.10,2013-06-01 17:42:00,
2013-06-01 13:57:00,91.0,67.0,29.89,SSW,213,0.0,5.0,46,0.00,,,0.03,weatherlink.com 1.10,2013-06-01 17:57:00,
2013-06-01 14:12:00,91.0,68.0,29.88,NE,55,0.0,6.0,47,0.00,,,0.03,weatherlink.com 1.10,2013-06-01 18:12:00,
2013-06-01 14:27:00,90.6,68.0,29.88,NE,54,2.0,5.0,48,0.00,,,0.03,weatherlink.com 1.10,2013-06-01 18:27:00,
2013-06-01 14:42:00,90.9,70.0,29.87,ESE,115,0.0,5.0,50,0.00,,,0.03,weatherlink.com 1.10,2013-06-01 18:42:00,
2013-06-01 14:57:00,90.7,70.0,29.87,WNW,294,2.0,6.0,50,0.00,,,0.03,weatherlink.com 1.10,2013-06-01 18:57:00,
2013-06-01 15:12:00,91.1,69.0,29.86,East,80,1.0,5.0,48,0.00,,,0.03,weatherlink.com 1.10,2013-06-01 19:12:00,
2013-06-01 15:27:00,90.0,68.0,29.85,NNE,32,0.0,7.0,49,0.00,,,0.03,weatherlink.com 1.10,2013-06-01 19:27:00,
2013-06-01 15:42:00,90.4,68.0,29.84,East,90,1.0,4.0,47,0.00,,,0.03,weatherlink.com 1.10,2013-06-01 19:42:00,
2013-06-01 15:57:00,90.4,68.0,29.84,ESE,108,2.0,5.0,48,0.00,,,0.03,weatherlink.com 1.10,2013-06-01 19:57:00,
2013-06-01 16:12:00,90.3,67.0,29.84,SSW,193,0.0,6.0,47,0.00,,,0.03,weatherlink.com 1.10,2013-06-01 20:12:00,
2013-06-01 16:27:00,90.1,68.0,29.84,SSE,148,4.0,7.0,48,0.00,,,0.03,weatherlink.com 1.10,2013-06-01 20:27:00,
2013-06-01 16:42:00,90.1,67.0,29.83,East,90,1.0,9.0,47,0.00,,,0.03,weatherlink.com 1.10,2013-06-01 20:42:00,
2013-06-01 16:57:00,90.2,68.0,29.83,ESE,112,0.0,6.0,48,0.00,,,0.03,weatherlink.com 1.10,2013-06-01 20:57:00,
2013-06-01 17:12:00,90.2,67.0,29.83,ENE,63,3.0,4.0,47,0.00,,,0.03,weatherlink.com 1.10,2013-06-01 21:12:00,
2013-06-01 17:27:00,89.4,67.0,29.83,SSE,165,1.0,7.0,48,0.00,,,0.03,weatherlink.com 1.10,2013-06-01 21:27:00,
2013-06-01 17:42:00,89.5,68.0,29.83,SW,229,2.0,5.0,49,0.00,,,0.03,weatherlink.com 1.10,2013-06-01 21:42:00,
2013-06-01 17:58:00,88.8,68.0,29.82,NNW,342,3.0,7.0,50,0.00,,,0.03,weatherlink.com 1.10,2013-06-01 21:58:00,
2013-06-01 18:13:00,89.0,67.0,29.82,SSE,149,0.0,4.0,49,0.00,,,0.03,weatherlink.com 1.10,2013-06-01 22:13:00,
2013-06-01 18:28:00,88.3,67.0,29.82,WSW,257,1.0,3.0,50,0.00,,,0.03,weatherlink.com 1.10,2013-06-01 22:28:00,
2013-06-01 18:43:00,87.4,68.0,29.82,East,86,1.0,2.0,52,0.00,,,0.03,weatherlink.com 1.10,2013-06-01 22:43:00,
2013-06-01 18:58:00,86.5,68.0,29.82,ESE,121,0.0,4.0,54,0.00,,,0.03,weatherlink.com 1.10,2013-06-01 22:58:00,
2013-06-01 19:13:00,86.0,67.0,29.82,East,100,0.0,2.0,54,0.00,,,0.03,weatherlink.com 1.10,2013-06-01 23:13:00,
2013-06-01 19:28:00,85.6,67.0,29.82,ENE,75,0.0,3.0,54,0.00,,,0.03,weatherlink.com 1.10,2013-06-01 23:28:00,
2013-06-01 19:43:00,85.1,68.0,29.82,ESE,104,0.0,1.0,56,0.00,,,0.03,weatherlink.com 1.10,2013-06-01 23:43:00,
2013-06-01 19:58:00,84.5,67.0,29.81,SW,215,0.0,5.0,56,0.00,,,0.03,weatherlink.com 1.10,2013-06-01 23:58:00,
2013-06-01 20:13:00,83.8,67.0,29.81,East,100,0.0,3.0,57,0.00,,,0.03,weatherlink.com 1.10,2013-06-02 00:13:00,
2013-06-01 20:28:00,82.9,67.0,29.81,ESE,110,0.0,6.0,58,0.00,,,0.03,weatherlink.com 1.10,2013-06-02 00:28:00,
2013-06-01 20:43:00,82.1,67.0,29.82,South,178,1.0,2.0,60,0.00,,,0.03,weatherlink.com 1.10,2013-06-02 00:43:00,
2013-06-01 20:58:00,81.4,67.0,29.81,SE,126,0.0,1.0,62,0.00,,,0.03,weatherlink.com 1.10,2013-06-02 00:58:00,
2013-06-01 21:13:00,80.7,67.0,29.82,ESE,122,0.0,1.0,64,0.00,,,0.03,weatherlink.com 1.10,2013-06-02 01:13:00,
2013-06-01 21:28:00,80.1,68.0,29.82,ENE,78,0.0,2.0,66,0.00,,,0.03,weatherlink.com 1.10,2013-06-02 01:28:00,
2013-06-01 21:44:00,79.7,68.0,29.82,East,101,0.0,1.0,68,0.00,,,0.03,weatherlink.com 1.10,2013-06-02 01:44:00,
2013-06-01 21:58:00,79.5,68.0,29.82,ENE,73,0.0,2.0,68,0.00,,,0.03,weatherlink.com 1.10,2013-06-02 01:58:00,
2013-06-01 22:13:00,79.4,68.0,29.81,WNW,289,0.0,3.0,69,0.00,,,0.03,weatherlink.com 1.10,2013-06-02 02:13:00,
2013-06-01 22:28:00,79.1,68.0,29.81,NE,34,0.0,3.0,69,0.00,,,0.03,weatherlink.com 1.10,2013-06-02 02:28:00,
2013-06-01 22:43:00,78.7,68.0,29.81,WNW,294,0.0,3.0,69,0.00,,,0.03,weatherlink.com 1.10,2013-06-02 02:43:00,
2013-06-01 22:58:00,78.6,68.0,29.81,SE,124,0.0,3.0,69,0.00,,,0.03,weatherlink.com 1.10,2013-06-02 02:58:00,
2013-06-01 23:13:00,78.4,67.0,29.81,ENE,76,0.0,2.0,69,0.00,,,0.03,weatherlink.com 1.10,2013-06-02 03:13:00,
2013-06-01 23:28:00,78.3,67.0,29.81,NE,42,0.0,2.0,69,0.00,,,0.03,weatherlink.com 1.10,2013-06-02 03:28:00,
2013-06-01 23:43:00,77.9,67.0,29.80,SSE,168,0.0,2.0,69,0.00,,,0.03,weatherlink.com 1.10,2013-06-02 03:43:00,
2013-06-01 23:59:00,77.4,66.0,29.80,SSW,202,0.0,2.0,69,0.00,,,0.03,weatherlink.com 1.10,2013-06-02 03:59:00,